SASA/SLA METAR and TAF weather

Enter ICAO airport designator
Station Type Date Time Source
SASA METAR 2020/09/19 06:00 UTC NOAA

SASA 190600Z 23003KT CAVOK 14/07 Q1015


Station Type Date Time Source
SASA Decoded METAR 2020/09/19 06:00 UTC NOAA

Salta Aerodrome, Argentina (SASA) 24-51S 065-29W 1221M
Sep 19, 2020 - 02:00 AM EDT / 2020.09.19 0600 UTC
Wind: from the SW (230 degrees) at 3 MPH (3 KT):0
Visibility: greater than 7 mile(s):0
Temperature: 57 F (14 C)
Dew Point: 44 F (7 C)
Relative Humidity: 62%
Pressure (altimeter): 29.97 in. Hg (1015 hPa)
ob: SASA 190600Z 23003KT CAVOK 14/07 Q1015
cycle: 6

Station Type Date Time Source
SASA TAF 2020/09/19 06:12 UTC NOAA

TAF SASA 190500Z 1906/2006 27005KT CAVOK TX23/1918Z TN10/1910Z
BECMG 1913/1916 12015KT 8000 BKN050
BECMG 1923/2002 36005KT

Example: see airport list